createdAt,value
2022-08-26T00:00:21.561Z,0.00
2022-08-26T00:01:24.196Z,0.00
2022-08-26T00:02:22.600Z,0.00
2022-08-26T00:03:21.531Z,0.00
2022-08-26T00:04:21.646Z,0.00
2022-08-26T00:05:21.508Z,0.00
2022-08-26T00:06:21.516Z,0.00
2022-08-26T00:07:21.489Z,0.00
2022-08-26T00:08:21.500Z,0.00
2022-08-26T00:09:21.471Z,0.00
2022-08-26T00:10:21.476Z,0.00
2022-08-26T00:11:26.896Z,0.00
2022-08-26T00:12:21.444Z,0.00
2022-08-26T00:13:22.425Z,0.00
2022-08-26T00:14:21.418Z,0.00
2022-08-26T00:15:21.407Z,0.00
2022-08-26T00:16:21.487Z,0.00
2022-08-26T00:17:21.386Z,0.00
2022-08-26T00:18:22.125Z,0.00
2022-08-26T00:19:21.379Z,0.00
2022-08-26T00:20:21.364Z,0.00
2022-08-26T00:21:21.370Z,0.00
2022-08-26T00:22:21.577Z,0.00
2022-08-26T00:23:24.249Z,0.00
2022-08-26T00:24:21.351Z,0.00
2022-08-26T00:25:21.307Z,0.00
2022-08-26T00:26:21.316Z,0.00
2022-08-26T00:27:21.284Z,0.00
2022-08-26T00:28:21.486Z,0.00
2022-08-26T00:29:21.444Z,0.00
2022-08-26T00:30:22.922Z,0.00
2022-08-26T00:31:21.281Z,0.00
2022-08-26T00:32:21.268Z,0.00
2022-08-26T00:33:21.231Z,0.00
2022-08-26T00:34:21.234Z,0.00
2022-08-26T00:35:21.210Z,0.00
2022-08-26T00:36:21.210Z,0.00
2022-08-26T00:37:21.213Z,0.00
2022-08-26T00:38:21.170Z,0.00
2022-08-26T00:39:21.166Z,0.00
2022-08-26T00:40:21.211Z,0.00
2022-08-26T00:41:21.157Z,0.00
2022-08-26T00:42:21.132Z,0.00
2022-08-26T00:43:21.123Z,0.00
2022-08-26T00:44:21.119Z,0.00
2022-08-26T00:45:21.098Z,0.00
2022-08-26T00:46:21.112Z,0.00
2022-08-26T00:47:21.079Z,0.00
2022-08-26T00:48:21.069Z,0.00
2022-08-26T00:49:21.068Z,0.00
2022-08-26T00:50:21.051Z,0.00
2022-08-26T00:51:21.052Z,0.00
2022-08-26T00:52:21.029Z,0.00
2022-08-26T00:53:25.890Z,0.00
2022-08-26T00:54:22.011Z,0.00
2022-08-26T00:55:20.997Z,0.00
2022-08-26T00:56:21.023Z,0.00
2022-08-26T00:57:20.999Z,0.00
2022-08-26T00:58:20.970Z,0.00
2022-08-26T00:59:20.971Z,0.00
2022-08-26T01:00:20.949Z,0.00
2022-08-26T01:01:23.016Z,0.00
2022-08-26T01:02:21.735Z,0.00
2022-08-26T01:03:20.917Z,0.00
2022-08-26T01:04:20.906Z,0.00
2022-08-26T01:05:20.897Z,0.00
2022-08-26T01:06:20.912Z,0.00
2022-08-26T01:07:20.878Z,0.00
2022-08-26T01:08:20.883Z,0.00
2022-08-26T01:09:20.862Z,0.00
2022-08-26T01:10:20.851Z,0.00
2022-08-26T01:11:20.859Z,0.00
2022-08-26T01:12:22.226Z,0.00
2022-08-26T01:13:20.834Z,0.00
2022-08-26T01:14:20.810Z,0.00
2022-08-26T01:15:20.800Z,0.00
2022-08-26T01:16:20.889Z,0.00
2022-08-26T01:17:20.773Z,0.00
2022-08-26T01:18:20.764Z,0.00
2022-08-26T01:19:20.779Z,0.00
2022-08-26T01:20:20.746Z,0.00
2022-08-26T01:21:20.766Z,0.00
2022-08-26T01:22:20.740Z,0.00
2022-08-26T01:23:21.718Z,0.00
2022-08-26T01:24:20.703Z,0.00
2022-08-26T01:25:20.699Z,0.00
2022-08-26T01:26:20.699Z,0.00
2022-08-26T01:27:20.674Z,0.00
2022-08-26T01:28:20.663Z,0.00
2022-08-26T01:29:20.653Z,0.00
2022-08-26T01:30:20.649Z,0.00
2022-08-26T01:31:20.735Z,0.00
2022-08-26T01:32:20.644Z,0.00
2022-08-26T01:33:20.622Z,0.00
2022-08-26T01:34:20.627Z,0.00
2022-08-26T01:35:20.593Z,0.00
2022-08-26T01:36:20.594Z,0.00
2022-08-26T01:37:20.587Z,0.00
2022-08-26T01:38:20.560Z,0.00
2022-08-26T01:39:20.554Z,0.00
2022-08-26T01:40:20.604Z,0.00
2022-08-26T01:41:27.280Z,0.00
2022-08-26T01:42:21.525Z,0.00
2022-08-26T01:43:20.510Z,0.00
2022-08-26T01:44:20.502Z,0.00
2022-08-26T01:45:20.501Z,0.00
2022-08-26T01:46:20.493Z,0.00
2022-08-26T01:47:20.503Z,0.00
2022-08-26T01:48:20.458Z,0.00
2022-08-26T01:49:20.448Z,0.00
2022-08-26T01:50:28.272Z,0.00
2022-08-26T01:51:21.429Z,0.00
2022-08-26T01:52:20.426Z,0.00
2022-08-26T01:53:21.401Z,0.00
2022-08-26T01:54:20.431Z,0.00
2022-08-26T01:55:32.372Z,0.00
2022-08-26T01:56:21.371Z,0.00
2022-08-26T01:57:20.406Z,0.00
2022-08-26T01:58:20.379Z,0.00
2022-08-26T01:59:20.362Z,0.00
2022-08-26T02:00:20.359Z,0.00
2022-08-26T02:01:20.359Z,0.00
2022-08-26T02:02:20.333Z,0.00
2022-08-26T02:03:20.304Z,0.00
2022-08-26T02:04:20.346Z,0.00
2022-08-26T02:05:20.288Z,0.00
2022-08-26T02:06:20.280Z,0.00
2022-08-26T02:07:20.279Z,0.00
2022-08-26T02:08:24.549Z,0.00
2022-08-26T02:09:20.355Z,0.00
2022-08-26T02:10:20.237Z,0.00
2022-08-26T02:11:20.225Z,0.00
2022-08-26T02:12:20.240Z,0.00
2022-08-26T02:13:20.216Z,0.00
2022-08-26T02:14:20.192Z,0.00
2022-08-26T02:15:20.184Z,0.00
2022-08-26T02:16:20.220Z,0.00
2022-08-26T02:17:20.175Z,0.00
2022-08-26T02:18:20.157Z,0.00
2022-08-26T02:19:20.145Z,0.00
2022-08-26T02:20:20.130Z,0.00
2022-08-26T02:21:20.122Z,0.00
2022-08-26T02:22:20.145Z,0.00
2022-08-26T02:23:20.103Z,0.00
2022-08-26T02:24:20.113Z,0.00
2022-08-26T02:25:20.081Z,0.00
2022-08-26T02:26:20.071Z,0.00
2022-08-26T02:27:20.079Z,0.00
2022-08-26T02:28:20.048Z,0.00
2022-08-26T02:29:20.043Z,0.00
2022-08-26T02:30:20.028Z,0.00
2022-08-26T02:31:20.104Z,0.00
2022-08-26T02:32:20.033Z,0.00
2022-08-26T02:33:20.015Z,0.00
2022-08-26T02:34:20.021Z,0.00
2022-08-26T02:35:20.415Z,0.00
2022-08-26T02:36:19.976Z,0.00
2022-08-26T02:37:20.175Z,0.00
2022-08-26T02:38:19.947Z,0.00
2022-08-26T02:39:22.262Z,0.00
2022-08-26T02:40:20.040Z,0.00
2022-08-26T02:41:19.932Z,0.00
2022-08-26T02:42:19.924Z,0.00
2022-08-26T02:43:31.209Z,0.00
2022-08-26T02:44:20.886Z,0.00
2022-08-26T02:45:23.277Z,0.00
2022-08-26T02:46:21.528Z,0.00
2022-08-26T02:47:20.867Z,0.00
2022-08-26T02:48:19.844Z,0.00
2022-08-26T02:49:19.833Z,0.00
2022-08-26T02:50:19.825Z,0.00
2022-08-26T02:51:19.822Z,0.00
2022-08-26T02:52:19.816Z,0.00
2022-08-26T02:53:24.916Z,0.00
2022-08-26T02:54:20.789Z,0.00
2022-08-26T02:55:19.791Z,0.00
2022-08-26T02:56:19.761Z,0.00
2022-08-26T02:57:19.773Z,0.00
2022-08-26T02:58:19.737Z,0.00
2022-08-26T02:59:19.742Z,0.00
2022-08-26T03:00:19.745Z,0.00
2022-08-26T03:01:19.821Z,0.00
2022-08-26T03:02:19.794Z,0.00
2022-08-26T03:03:19.689Z,0.00
2022-08-26T03:04:19.676Z,0.00
2022-08-26T03:05:19.669Z,0.00
2022-08-26T03:06:19.661Z,0.00
2022-08-26T03:07:19.691Z,0.00
2022-08-26T03:08:19.650Z,0.00
2022-08-26T03:09:19.649Z,0.00
2022-08-26T03:10:19.645Z,0.00
2022-08-26T03:11:19.605Z,0.00
2022-08-26T03:12:19.607Z,0.00
2022-08-26T03:13:19.584Z,0.00
2022-08-26T03:14:19.575Z,0.00
2022-08-26T03:15:19.568Z,0.00
2022-08-26T03:16:19.585Z,0.00
2022-08-26T03:17:19.563Z,0.00
2022-08-26T03:18:19.528Z,0.00
2022-08-26T03:19:19.520Z,0.00
2022-08-26T03:20:19.534Z,0.00
2022-08-26T03:21:19.518Z,0.00
2022-08-26T03:22:19.541Z,0.00
2022-08-26T03:23:19.498Z,0.00
2022-08-26T03:24:19.467Z,0.00
2022-08-26T03:25:19.460Z,0.00
2022-08-26T03:26:19.446Z,0.00
2022-08-26T03:27:19.455Z,0.00
2022-08-26T03:28:19.494Z,0.00
2022-08-26T03:29:19.415Z,0.00
2022-08-26T03:30:19.416Z,0.00
2022-08-26T03:31:19.453Z,0.00
2022-08-26T03:32:20.398Z,0.00
2022-08-26T03:33:19.380Z,0.00
2022-08-26T03:34:19.414Z,0.00
2022-08-26T03:35:19.368Z,0.00
2022-08-26T03:36:19.341Z,0.00
2022-08-26T03:37:19.347Z,0.00
2022-08-26T03:38:19.328Z,0.00
2022-08-26T03:39:19.331Z,0.00
2022-08-26T03:40:20.331Z,0.00
2022-08-26T03:41:19.291Z,0.00
2022-08-26T03:42:21.515Z,0.00
2022-08-26T03:43:19.270Z,0.00
2022-08-26T03:44:19.271Z,0.00
2022-08-26T03:45:19.271Z,0.00
2022-08-26T03:46:19.288Z,0.00
2022-08-26T03:47:19.277Z,0.00
2022-08-26T03:48:19.225Z,0.00
2022-08-26T03:49:19.213Z,0.00
2022-08-26T03:50:22.687Z,0.00
2022-08-26T03:51:19.186Z,0.00
2022-08-26T03:52:19.192Z,0.00
2022-08-26T03:53:20.586Z,0.00
2022-08-26T03:54:19.151Z,0.00
2022-08-26T03:55:19.145Z,0.00
2022-08-26T03:56:19.133Z,0.00
2022-08-26T03:57:19.125Z,0.00
2022-08-26T03:58:19.138Z,1.00
2022-08-26T03:59:19.105Z,1.00
2022-08-26T04:00:19.090Z,1.00
2022-08-26T04:01:19.164Z,1.00
2022-08-26T04:02:19.069Z,0.00
2022-08-26T04:03:19.370Z,0.00
2022-08-26T04:04:19.045Z,2.00
2022-08-26T04:05:19.039Z,2.00
2022-08-26T04:06:19.029Z,2.00
2022-08-26T04:07:19.033Z,0.00
2022-08-26T04:08:19.031Z,0.00
2022-08-26T04:09:18.998Z,4.00
2022-08-26T04:10:20.053Z,2.00
2022-08-26T04:11:18.987Z,2.00
2022-08-26T04:12:19.007Z,6.00
2022-08-26T04:13:18.971Z,5.00
2022-08-26T04:14:19.995Z,3.00
2022-08-26T04:15:18.940Z,15.00
2022-08-26T04:16:18.998Z,9.00
2022-08-26T04:17:18.916Z,7.00
2022-08-26T04:18:18.939Z,16.00
2022-08-26T04:19:18.896Z,6.00
2022-08-26T04:20:18.894Z,18.00
2022-08-26T04:21:18.891Z,15.00
2022-08-26T04:22:24.196Z,19.00
2022-08-26T04:23:19.865Z,26.00
2022-08-26T04:24:18.839Z,30.00
2022-08-26T04:25:18.828Z,29.00
2022-08-26T04:26:18.817Z,35.00
2022-08-26T04:27:18.810Z,51.00
2022-08-26T04:28:18.814Z,53.00
2022-08-26T04:29:18.801Z,62.00
2022-08-26T04:30:18.785Z,61.00
2022-08-26T04:31:18.910Z,72.00
2022-08-26T04:32:18.761Z,76.00
2022-08-26T04:33:18.760Z,85.00
2022-08-26T04:34:19.735Z,90.00
2022-08-26T04:35:20.934Z,86.00
2022-08-26T04:36:19.954Z,98.00
2022-08-26T04:37:18.703Z,100.00
2022-08-26T04:38:18.707Z,98.00
2022-08-26T04:39:18.813Z,103.00
2022-08-26T04:40:18.823Z,90.00
2022-08-26T04:41:18.660Z,103.00
2022-08-26T04:42:23.271Z,112.00
2022-08-26T04:43:19.689Z,118.00
2022-08-26T04:44:18.631Z,118.00
2022-08-26T04:45:18.619Z,127.00
2022-08-26T04:46:18.634Z,125.00
2022-08-26T04:47:18.610Z,132.00
2022-08-26T04:48:18.602Z,134.00
2022-08-26T04:49:18.580Z,146.00
2022-08-26T04:50:18.566Z,149.00
2022-08-26T04:51:18.555Z,139.00
2022-08-26T04:52:18.544Z,150.00
2022-08-26T04:53:18.554Z,155.00
2022-08-26T04:54:18.523Z,162.00
2022-08-26T04:55:18.517Z,161.00
2022-08-26T04:56:18.518Z,162.00
2022-08-26T04:57:18.528Z,175.00
2022-08-26T04:58:18.495Z,186.00
2022-08-26T04:59:18.488Z,192.00
2022-08-26T05:00:18.464Z,185.00
2022-08-26T05:01:18.483Z,185.00
2022-08-26T05:02:18.440Z,189.00
2022-08-26T05:03:18.452Z,195.00
2022-08-26T05:04:19.022Z,206.00
2022-08-26T05:05:18.412Z,216.00
2022-08-26T05:06:19.095Z,226.00
2022-08-26T05:07:18.390Z,218.00
2022-08-26T05:08:18.417Z,229.00
2022-08-26T05:09:18.380Z,238.00
2022-08-26T05:10:18.375Z,250.00
2022-08-26T05:11:18.354Z,240.00
2022-08-26T05:12:18.334Z,248.00
2022-08-26T05:13:18.342Z,266.00
2022-08-26T05:14:18.315Z,277.00
2022-08-26T05:15:18.315Z,288.00
2022-08-26T05:16:18.318Z,272.00
2022-08-26T05:17:18.287Z,287.00
2022-08-26T05:18:20.011Z,308.00
2022-08-26T05:19:18.969Z,306.00
2022-08-26T05:20:19.866Z,334.00
2022-08-26T05:21:19.240Z,336.00
2022-08-26T05:22:18.388Z,335.00
2022-08-26T05:23:18.242Z,348.00
2022-08-26T05:24:18.228Z,349.00
2022-08-26T05:25:18.197Z,363.00
2022-08-26T05:26:18.190Z,372.00
2022-08-26T05:27:19.205Z,373.00
2022-08-26T05:28:18.181Z,387.00
2022-08-26T05:29:18.156Z,420.00
2022-08-26T05:30:18.153Z,425.00
2022-08-26T05:31:18.187Z,428.00
2022-08-26T05:32:18.137Z,427.00
2022-08-26T05:33:18.142Z,445.00
2022-08-26T05:34:18.109Z,441.00
2022-08-26T05:35:18.094Z,450.00
2022-08-26T05:36:18.093Z,465.00
2022-08-26T05:37:18.088Z,476.00
2022-08-26T05:38:18.066Z,492.00
2022-08-26T05:39:18.050Z,498.00
2022-08-26T05:40:18.102Z,495.00
2022-08-26T05:41:18.031Z,510.00
2022-08-26T05:42:18.038Z,522.00
2022-08-26T05:43:18.038Z,529.00
2022-08-26T05:44:18.024Z,545.00
2022-08-26T05:45:17.990Z,536.00
2022-08-26T05:46:18.069Z,560.00
2022-08-26T05:47:17.969Z,575.00
2022-08-26T05:48:18.000Z,590.00
2022-08-26T05:49:17.946Z,578.00
2022-08-26T05:50:17.941Z,590.00
2022-08-26T05:51:17.927Z,595.00
2022-08-26T05:52:17.918Z,609.00
2022-08-26T05:53:17.923Z,628.00
2022-08-26T05:54:21.270Z,628.00
2022-08-26T05:55:17.895Z,628.00
2022-08-26T05:56:17.896Z,632.00
2022-08-26T05:57:18.544Z,654.00
2022-08-26T05:58:17.897Z,670.00
2022-08-26T05:59:21.249Z,702.00
2022-08-26T06:00:18.833Z,738.00
2022-08-26T06:01:17.893Z,749.00
2022-08-26T06:02:17.890Z,723.00
2022-08-26T06:03:17.891Z,739.00
2022-08-26T06:04:17.798Z,732.00
2022-08-26T06:05:17.787Z,715.00
2022-08-26T06:06:20.726Z,723.00
2022-08-26T06:07:18.796Z,738.00
2022-08-26T06:08:19.599Z,722.00
2022-08-26T06:09:18.302Z,705.00
2022-08-26T06:10:33.047Z,727.00
2022-08-26T06:11:18.877Z,744.00
2022-08-26T06:12:18.578Z,787.00
2022-08-26T06:13:17.715Z,797.00
2022-08-26T06:14:17.694Z,801.00
2022-08-26T06:15:17.678Z,808.00
2022-08-26T06:16:17.729Z,814.00
2022-08-26T06:17:17.656Z,825.00
2022-08-26T06:18:17.661Z,836.00
2022-08-26T06:19:17.637Z,850.00
2022-08-26T06:20:17.639Z,883.00
2022-08-26T06:21:17.620Z,912.00
2022-08-26T06:22:22.241Z,906.00
2022-08-26T06:23:18.605Z,916.00
2022-08-26T06:24:17.584Z,925.00
2022-08-26T06:25:17.576Z,939.00
2022-08-26T06:26:17.570Z,942.00
2022-08-26T06:27:17.550Z,954.00
2022-08-26T06:28:17.563Z,962.00
2022-08-26T06:29:24.127Z,992.00
2022-08-26T06:30:18.524Z,1028.00
2022-08-26T06:31:17.605Z,1051.00
2022-08-26T06:32:17.515Z,1074.00
2022-08-26T06:33:17.534Z,1080.00
2022-08-26T06:34:17.521Z,1113.00
2022-08-26T06:35:17.508Z,1197.00
2022-08-26T06:36:18.590Z,1255.00
2022-08-26T06:37:17.448Z,1292.00
2022-08-26T06:38:17.450Z,1303.00
2022-08-26T06:39:17.425Z,1334.00
2022-08-26T06:40:17.490Z,1338.00
2022-08-26T06:41:17.416Z,1305.00
2022-08-26T06:42:17.401Z,1319.00
2022-08-26T06:43:17.421Z,1342.00
2022-08-26T06:44:17.390Z,1377.00
2022-08-26T06:45:17.365Z,1378.00
2022-08-26T06:46:17.451Z,1380.00
2022-08-26T06:47:17.346Z,1397.00
2022-08-26T06:48:17.375Z,1430.00
2022-08-26T06:49:17.443Z,1453.00
2022-08-26T06:50:17.319Z,1485.00
2022-08-26T06:51:17.308Z,1496.00
2022-08-26T06:52:22.536Z,1543.00
2022-08-26T06:53:18.326Z,1592.00
2022-08-26T06:54:17.273Z,1617.00
2022-08-26T06:55:17.280Z,1657.00
2022-08-26T06:56:17.259Z,1686.00
2022-08-26T06:57:17.258Z,1739.00
2022-08-26T06:58:17.234Z,1798.00
2022-08-26T06:59:17.243Z,1849.00
2022-08-26T07:00:17.232Z,1912.00
2022-08-26T07:01:17.262Z,1943.00
2022-08-26T07:02:17.227Z,1957.00
2022-08-26T07:03:17.294Z,2008.00
2022-08-26T07:04:22.175Z,1975.00
2022-08-26T07:05:18.187Z,1930.00
2022-08-26T07:06:17.155Z,1945.00
2022-08-26T07:07:17.141Z,1942.00
2022-08-26T07:08:17.140Z,1940.00
2022-08-26T07:09:17.142Z,1964.00
2022-08-26T07:10:17.112Z,2018.00
2022-08-26T07:11:17.112Z,2070.00
2022-08-26T07:12:17.089Z,2099.00
2022-08-26T07:13:17.089Z,2106.00
2022-08-26T07:14:19.331Z,2154.00
2022-08-26T07:15:17.059Z,2193.00
2022-08-26T07:16:17.107Z,2201.00
2022-08-26T07:17:17.038Z,2225.00
2022-08-26T07:18:17.039Z,2262.00
2022-08-26T07:19:17.043Z,2325.00
2022-08-26T07:20:17.014Z,2392.00
2022-08-26T07:21:17.011Z,2372.00
2022-08-26T07:22:17.713Z,2415.00
2022-08-26T07:23:17.321Z,2421.00
2022-08-26T07:24:16.999Z,2456.00
2022-08-26T07:25:16.961Z,2499.00
2022-08-26T07:26:16.958Z,2534.00
2022-08-26T07:27:16.952Z,2563.00
2022-08-26T07:28:16.943Z,2587.00
2022-08-26T07:29:17.715Z,2598.00
2022-08-26T07:30:16.910Z,2656.00
2022-08-26T07:31:16.998Z,2679.00
2022-08-26T07:32:16.905Z,2737.00
2022-08-26T07:33:16.889Z,2782.00
2022-08-26T07:34:16.905Z,2813.00
2022-08-26T07:35:16.875Z,2832.00
2022-08-26T07:36:16.889Z,2857.00
2022-08-26T07:37:17.668Z,2871.00
2022-08-26T07:38:16.827Z,2925.00
2022-08-26T07:39:16.840Z,2901.00
2022-08-26T07:40:16.859Z,2975.00
2022-08-26T07:41:16.850Z,3011.00
2022-08-26T07:42:16.784Z,2984.00
2022-08-26T07:43:16.771Z,3012.00
2022-08-26T07:44:16.808Z,3009.00
2022-08-26T07:45:16.761Z,3045.00
2022-08-26T07:46:16.760Z,3094.00
2022-08-26T07:47:25.621Z,3107.00
2022-08-26T07:48:17.723Z,3136.00
2022-08-26T07:49:16.842Z,3221.00
2022-08-26T07:50:16.707Z,3280.00
2022-08-26T07:51:16.690Z,3289.00
2022-08-26T07:52:16.683Z,3299.00
2022-08-26T07:53:18.031Z,3301.00
2022-08-26T07:54:16.676Z,3268.00
2022-08-26T07:55:16.656Z,3300.00
2022-08-26T07:56:16.646Z,3285.00
2022-08-26T07:57:16.639Z,3270.00
2022-08-26T07:58:16.624Z,3256.00
2022-08-26T07:59:16.629Z,3251.00
2022-08-26T08:00:16.621Z,3191.00
2022-08-26T08:01:16.676Z,3181.00
2022-08-26T08:02:16.582Z,3204.00
2022-08-26T08:03:16.593Z,3250.00
2022-08-26T08:04:16.561Z,3271.00
2022-08-26T08:05:16.618Z,3239.00
2022-08-26T08:06:16.543Z,3171.00
2022-08-26T08:07:16.542Z,3181.00
2022-08-26T08:08:26.503Z,3153.00
2022-08-26T08:09:17.521Z,3138.00
2022-08-26T08:10:16.527Z,3168.00
2022-08-26T08:11:16.530Z,3177.00
2022-08-26T08:12:16.482Z,3219.00
2022-08-26T08:13:16.477Z,3293.00
2022-08-26T08:14:16.491Z,3246.00
2022-08-26T08:15:16.450Z,3251.00
2022-08-26T08:16:16.440Z,3208.00
2022-08-26T08:17:16.432Z,3189.00
2022-08-26T08:18:16.486Z,3212.00
2022-08-26T08:19:16.424Z,3255.00
2022-08-26T08:20:16.405Z,3337.00
2022-08-26T08:21:23.667Z,3408.00
2022-08-26T08:22:19.825Z,3506.00
2022-08-26T08:23:16.380Z,3486.00
2022-08-26T08:24:16.441Z,3632.00
2022-08-26T08:25:16.351Z,3692.00
2022-08-26T08:26:16.889Z,3801.00
2022-08-26T08:27:18.091Z,3843.00
2022-08-26T08:28:16.320Z,3878.00
2022-08-26T08:29:16.328Z,3986.00
2022-08-26T08:30:20.904Z,4029.00
2022-08-26T08:31:21.590Z,3975.00
2022-08-26T08:32:17.291Z,3973.00
2022-08-26T08:33:16.284Z,4088.00
2022-08-26T08:34:16.291Z,4130.00
2022-08-26T08:35:16.247Z,4087.00
2022-08-26T08:36:18.624Z,4072.00
2022-08-26T08:37:16.237Z,4028.00
2022-08-26T08:38:16.257Z,4027.00
2022-08-26T08:39:16.208Z,4153.00
2022-08-26T08:40:16.265Z,4168.00
2022-08-26T08:41:16.186Z,4252.00
2022-08-26T08:42:16.177Z,4300.00
2022-08-26T08:43:16.205Z,4282.00
2022-08-26T08:44:16.204Z,4295.00
2022-08-26T08:45:16.868Z,4307.00
2022-08-26T08:46:16.252Z,4255.00
2022-08-26T08:47:16.123Z,4203.00
2022-08-26T08:48:16.113Z,4251.00
2022-08-26T08:49:16.140Z,4311.00
2022-08-26T08:50:16.094Z,4351.00
2022-08-26T08:51:16.088Z,4304.00
2022-08-26T08:52:16.074Z,4268.00
2022-08-26T08:53:16.065Z,4306.00
2022-08-26T08:54:16.068Z,4344.00
2022-08-26T08:55:18.056Z,4287.00
2022-08-26T08:56:16.039Z,4393.00
2022-08-26T08:57:16.041Z,4345.00
2022-08-26T08:58:16.044Z,4382.00
2022-08-26T08:59:16.016Z,4229.00
2022-08-26T09:00:15.993Z,4195.00
2022-08-26T09:01:16.027Z,4120.00
2022-08-26T09:02:16.777Z,4134.00
2022-08-26T09:03:15.957Z,4244.00
2022-08-26T09:04:17.284Z,4370.00
2022-08-26T09:05:15.941Z,4353.00
2022-08-26T09:06:15.931Z,4329.00
2022-08-26T09:07:15.926Z,4344.00
2022-08-26T09:08:15.909Z,4356.00
2022-08-26T09:09:15.934Z,4405.00
2022-08-26T09:10:15.909Z,4377.00
2022-08-26T09:11:15.878Z,4318.00
2022-08-26T09:12:15.902Z,4160.00
2022-08-26T09:13:17.019Z,4117.00
2022-08-26T09:14:16.857Z,4117.00
2022-08-26T09:15:15.857Z,4107.00
2022-08-26T09:16:15.932Z,3988.00
2022-08-26T09:17:15.810Z,4118.00
2022-08-26T09:18:15.803Z,4085.00
2022-08-26T09:19:18.932Z,4307.00
2022-08-26T09:20:15.782Z,4238.00
2022-08-26T09:21:15.778Z,4263.00
2022-08-26T09:22:15.816Z,4406.00
2022-08-26T09:23:15.763Z,4399.00
2022-08-26T09:24:15.761Z,4403.00
2022-08-26T09:25:15.738Z,4262.00
2022-08-26T09:26:15.722Z,4255.00
2022-08-26T09:27:15.712Z,4198.00
2022-08-26T09:28:15.746Z,4329.00
2022-08-26T09:29:15.809Z,4089.00
2022-08-26T09:30:15.679Z,4114.00
2022-08-26T09:31:15.714Z,4167.00
2022-08-26T09:32:15.661Z,4050.00
2022-08-26T09:33:15.939Z,4069.00
2022-08-26T09:34:17.241Z,4013.00
2022-08-26T09:35:15.627Z,3954.00
2022-08-26T09:36:15.620Z,3973.00
2022-08-26T09:37:15.628Z,3988.00
2022-08-26T09:38:15.916Z,3856.00
2022-08-26T09:39:15.615Z,3886.00
2022-08-26T09:40:15.641Z,3860.00
2022-08-26T09:41:15.569Z,3858.00
2022-08-26T09:42:16.797Z,3845.00
2022-08-26T09:43:15.547Z,3889.00
2022-08-26T09:44:15.730Z,3867.00
2022-08-26T09:45:15.534Z,3841.00
2022-08-26T09:46:15.657Z,3846.00
2022-08-26T09:47:15.510Z,3834.00
2022-08-26T09:48:16.587Z,3837.00
2022-08-26T09:49:15.530Z,3849.00
2022-08-26T09:50:15.483Z,3824.00
2022-08-26T09:51:15.478Z,3817.00
2022-08-26T09:52:15.454Z,3800.00
2022-08-26T09:53:15.450Z,3838.00
2022-08-26T09:54:15.460Z,3852.00
2022-08-26T09:55:16.434Z,3836.00
2022-08-26T09:56:15.410Z,3791.00
2022-08-26T09:57:15.407Z,3793.00
2022-08-26T09:58:15.392Z,3864.00
2022-08-26T09:59:15.386Z,3834.00
2022-08-26T10:00:15.599Z,3851.00
2022-08-26T10:01:15.429Z,3816.00
2022-08-26T10:02:15.366Z,3807.00
2022-08-26T10:03:17.377Z,3840.00
2022-08-26T10:04:15.408Z,3821.00
2022-08-26T10:05:15.357Z,3816.00
2022-08-26T10:06:15.315Z,3844.00
2022-08-26T10:07:15.305Z,3871.00
2022-08-26T10:08:15.289Z,3892.00
2022-08-26T10:09:15.279Z,3848.00
2022-08-26T10:10:15.382Z,3860.00
2022-08-26T10:11:15.261Z,3843.00
2022-08-26T10:12:15.270Z,3871.00
2022-08-26T10:13:15.242Z,3869.00
2022-08-26T10:14:15.243Z,3950.00
2022-08-26T10:15:15.246Z,3898.00
2022-08-26T10:16:15.274Z,3854.00
2022-08-26T10:17:15.198Z,3983.00
2022-08-26T10:18:15.191Z,3889.00
2022-08-26T10:19:15.793Z,3907.00
2022-08-26T10:20:24.960Z,3942.00
2022-08-26T10:21:18.052Z,3941.00
2022-08-26T10:22:15.149Z,3942.00
2022-08-26T10:23:15.151Z,3973.00
2022-08-26T10:24:15.127Z,4024.00
2022-08-26T10:25:15.149Z,4049.00
2022-08-26T10:26:15.105Z,4054.00
2022-08-26T10:27:15.096Z,4049.00
2022-08-26T10:28:15.088Z,4057.00
2022-08-26T10:29:15.803Z,4082.00
2022-08-26T10:30:15.140Z,4107.00
2022-08-26T10:31:15.055Z,4135.00
2022-08-26T10:32:15.097Z,4072.00
2022-08-26T10:33:15.036Z,4043.00
2022-08-26T10:34:15.085Z,4146.00
2022-08-26T10:35:15.060Z,4157.00
2022-08-26T10:36:15.302Z,4144.00
2022-08-26T10:37:16.649Z,4181.00
2022-08-26T10:38:14.982Z,4274.00
2022-08-26T10:39:14.976Z,4221.00
2022-08-26T10:40:15.106Z,4245.00
2022-08-26T10:41:16.866Z,4244.00
2022-08-26T10:42:14.977Z,4316.00
2022-08-26T10:43:14.932Z,4300.00
2022-08-26T10:44:14.925Z,4350.00
2022-08-26T10:45:15.448Z,4279.00
2022-08-26T10:46:14.946Z,4281.00
2022-08-26T10:47:14.892Z,4300.00
2022-08-26T10:48:14.892Z,4358.00
2022-08-26T10:49:14.873Z,4423.00
2022-08-26T10:50:14.875Z,4475.00
2022-08-26T10:51:14.866Z,4485.00
2022-08-26T10:52:16.480Z,4439.00
2022-08-26T10:53:14.849Z,4383.00
2022-08-26T10:54:14.831Z,4427.00
2022-08-26T10:55:14.825Z,4541.00
2022-08-26T10:56:18.009Z,4463.00
2022-08-26T10:57:14.793Z,4594.00
2022-08-26T10:58:26.120Z,4540.00
2022-08-26T10:59:15.767Z,4598.00
2022-08-26T11:00:14.781Z,4532.00
2022-08-26T11:01:15.329Z,4523.00
2022-08-26T11:02:14.738Z,4595.00
2022-08-26T11:03:21.913Z,4587.00
2022-08-26T11:04:15.842Z,4677.00
2022-08-26T11:05:14.777Z,4637.00
2022-08-26T11:06:14.708Z,4661.00
2022-08-26T11:07:14.689Z,4746.00
2022-08-26T11:08:14.728Z,4764.00
2022-08-26T11:09:14.681Z,4757.00
2022-08-26T11:10:14.664Z,4682.00
2022-08-26T11:11:14.648Z,4766.00
2022-08-26T11:12:14.693Z,4858.00
2022-08-26T11:13:14.629Z,4907.00
2022-08-26T11:14:14.633Z,4878.00
2022-08-26T11:15:14.609Z,4971.00
2022-08-26T11:16:14.652Z,4980.00
2022-08-26T11:17:14.588Z,5113.00
2022-08-26T11:18:14.587Z,5068.00
2022-08-26T11:19:14.584Z,5080.00
2022-08-26T11:20:14.556Z,5175.00
2022-08-26T11:21:14.545Z,5268.00
2022-08-26T11:22:14.534Z,5252.00
2022-08-26T11:23:14.531Z,5157.00
2022-08-26T11:24:14.542Z,5353.00
2022-08-26T11:25:14.510Z,5457.00
2022-08-26T11:26:18.855Z,5342.00
2022-08-26T11:27:15.492Z,5269.00
2022-08-26T11:28:14.490Z,5317.00
2022-08-26T11:29:14.571Z,5383.00
2022-08-26T11:30:14.481Z,5513.00
2022-08-26T11:31:14.487Z,5381.00
2022-08-26T11:32:14.435Z,5421.00
2022-08-26T11:33:14.441Z,5453.00
2022-08-26T11:34:14.428Z,5448.00
2022-08-26T11:35:14.409Z,5472.00
2022-08-26T11:36:14.396Z,5418.00
2022-08-26T11:37:14.453Z,5531.00
2022-08-26T11:38:14.375Z,5679.00
2022-08-26T11:39:14.383Z,5585.00
2022-08-26T11:40:14.495Z,5608.00
2022-08-26T11:41:14.348Z,5688.00
2022-08-26T11:42:14.356Z,5962.00
2022-08-26T11:43:14.331Z,5905.00
2022-08-26T11:44:14.322Z,5819.00
2022-08-26T11:45:14.348Z,5893.00
2022-08-26T11:46:14.391Z,6176.00
2022-08-26T11:47:14.286Z,6115.00
2022-08-26T11:48:14.277Z,6133.00
2022-08-26T11:49:14.272Z,6374.00
2022-08-26T11:50:14.267Z,6163.00
2022-08-26T11:51:14.244Z,6257.00
2022-08-26T11:52:14.251Z,6266.00
2022-08-26T11:53:14.226Z,6222.00
2022-08-26T11:54:14.218Z,6351.00
2022-08-26T11:55:14.255Z,6245.00
2022-08-26T11:56:14.200Z,6365.00
2022-08-26T11:57:14.204Z,6595.00
2022-08-26T11:58:14.175Z,6742.00
2022-08-26T11:59:14.180Z,6263.00
2022-08-26T12:00:15.835Z,6575.00
2022-08-26T12:01:15.156Z,6428.00
2022-08-26T12:02:14.136Z,6555.00
2022-08-26T12:03:14.133Z,6630.00
2022-08-26T12:04:14.310Z,6541.00
2022-08-26T12:05:14.113Z,5706.00
2022-08-26T12:06:14.289Z,6509.00
2022-08-26T12:07:14.091Z,6854.00
2022-08-26T12:08:14.073Z,6406.00
2022-08-26T12:09:14.103Z,5546.00
2022-08-26T12:10:14.065Z,6468.00
2022-08-26T12:11:14.055Z,6879.00
2022-08-26T12:12:14.829Z,6797.00
2022-08-26T12:13:14.026Z,6581.00
2022-08-26T12:14:14.015Z,6523.00
2022-08-26T12:15:14.019Z,6964.00
2022-08-26T12:16:14.030Z,7029.00
2022-08-26T12:17:13.988Z,7047.00
2022-08-26T12:18:13.980Z,6879.00
2022-08-26T12:19:14.001Z,5866.00
2022-08-26T12:20:13.969Z,6038.00
2022-08-26T12:21:13.947Z,6778.00
2022-08-26T12:22:13.936Z,7335.00
2022-08-26T12:23:13.926Z,7347.00
2022-08-26T12:24:13.937Z,7263.00
2022-08-26T12:25:13.925Z,7377.00
2022-08-26T12:26:13.894Z,7118.00
2022-08-26T12:27:14.837Z,7731.00
2022-08-26T12:28:13.874Z,7825.00
2022-08-26T12:29:20.136Z,7431.00
2022-08-26T12:30:14.876Z,7590.00
2022-08-26T12:31:13.877Z,7892.00
2022-08-26T12:32:13.857Z,7521.00
2022-08-26T12:33:22.785Z,7730.00